Time;durP1;ratioP1;P1;durP2;ratioP2;P2;SDS_P1;SDS_P2;PMS_P1;PMS_P2;Temp;Humidity;BMP_temperature;BMP_pressure;BME280_temperature;BME280_humidity;BME280_pressure;Samples;Min_cycle;Max_cycle;Signal;HPM_P1;HPM_P2
2022/12/17 13:07:36;;;;;;;45.10;22.30;;;;;;;-3.75;84.73;101157.04;102123;1310;96313;-62
2022/12/17 13:10:29;;;;;;;52.10;24.30;;;;;;;-3.83;84.90;101159.73;102086;1310;86212;-61
2022/12/17 13:13:20;;;;;;;52.80;23.90;;;;;;;-3.85;84.81;101162.84;102119;1310;94739;-63
2022/12/17 13:16:03;;;;;;;56.10;24.00;;;;;;;-3.89;85.18;101169.21;102126;1313;80748;-64
2022/12/17 13:18:40;;;;;;;55.30;25.70;;;;;;;-3.87;85.10;101169.11;102144;1313;81356;-63
2022/12/17 13:21:30;;;;;;;46.40;23.60;;;;;;;-3.86;85.14;101166.05;102117;1313;100771;-63
2022/12/17 13:24:29;;;;;;;50.20;22.00;;;;;;;-3.85;84.98;101167.27;102161;1310;89629;-63
2022/12/17 13:27:20;;;;;;;46.60;21.60;;;;;;;-3.79;85.21;101180.48;102200;1310;95560;-61
2022/12/17 13:29:58;;;;;;;66.30;31.70;;;;;;;-3.79;85.10;101180.48;102099;1312;78973;-62
2022/12/17 13:32:49;;;;;;;114.70;60.20;;;;;;;-3.80;84.89;101181.76;102136;1311;82951;-61
2022/12/17 13:35:37;;;;;;;76.40;37.80;;;;;;;-3.87;85.21;101179.32;102091;1310;98447;-62
2022/12/17 13:38:27;;;;;;;77.10;35.60;;;;;;;-3.81;85.05;101181.99;102054;1313;91148;-62
2022/12/17 13:41:10;;;;;;;55.90;28.50;;;;;;;-3.81;85.45;101184.27;102167;1310;95671;-63
2022/12/17 13:43:50;;;;;;;58.70;26.50;;;;;;;-3.82;84.90;101184.13;102128;1313;77743;-63
2022/12/17 13:46:27;;;;;;;58.10;28.60;;;;;;;-3.84;85.04;101184.44;102186;1310;82889;-62
2022/12/17 13:49:16;;;;;;;62.70;30.30;;;;;;;-3.87;85.02;101190.95;102163;1313;99014;-61
2022/12/17 13:52:17;;;;;;;57.80;26.90;;;;;;;-3.92;84.93;101196.48;102175;1309;89140;-61
2022/12/17 13:55:06;;;;;;;105.30;45.90;;;;;;;-3.99;84.79;101193.31;102112;1313;95588;-64
2022/12/17 13:57:48;;;;;;;96.70;42.80;;;;;;;-4.06;84.89;101190.71;102091;1313;79615;-62
2022/12/17 14:00:29;;;;;;;68.70;32.70;;;;;;;-4.17;84.70;101196.19;102156;1313;81636;-62
2022/12/17 14:03:13;;;;;;;82.30;37.40;;;;;;;-4.27;84.84;101202.30;102119;1310;99328;-61
2022/12/17 14:05:47;;;;;;;67.60;31.20;;;;;;;-4.36;85.09;101206.08;102101;1310;88274;-61
2022/12/17 14:08:23;;;;;;;69.10;31.50;;;;;;;-4.38;84.99;101206.52;102104;1313;93878;-62
2022/12/17 14:13:50;;;;;;;72.50;33.80;;;;;;;-4.40;85.03;101217.50;102117;1312;82941;-63
2022/12/17 14:16:25;;;;;;;112.40;42.50;;;;;;;-4.40;85.02;101219.09;102125;1313;98839;-61
2022/12/17 14:19:00;;;;;;;134.60;51.00;;;;;;;-4.38;84.98;101223.07;102141;1313;88638;-62
2022/12/17 14:21:40;;;;;;;100.20;43.10;;;;;;;-4.40;84.85;101230.16;102068;1310;95380;-62
2022/12/17 14:24:17;;;;;;;65.30;27.80;;;;;;;-4.42;84.87;101231.48;102129;1310;81660;-62
2022/12/17 14:26:57;;;;;;;67.50;29.40;;;;;;;-4.41;84.94;101237.27;102139;1310;82007;-63
2022/12/17 14:29:33;;;;;;;71.50;31.60;;;;;;;-4.41;84.96;101240.61;102151;1313;98647;-62
2022/12/17 14:32:26;;;;;;;75.90;30.20;;;;;;;-4.47;85.44;101249.17;102146;1313;87779;-64
2022/12/17 14:35:20;;;;;;;88.60;36.20;;;;;;;-4.51;85.17;101256.92;102099;1313;94057;-62
2022/12/17 14:38:03;;;;;;;115.70;43.10;;;;;;;-4.52;84.87;101262.23;102119;1313;80459;-64
2022/12/17 14:40:38;;;;;;;90.40;35.10;;;;;;;-4.52;84.93;101262.41;102135;1310;80902;-65
2022/12/17 14:43:21;;;;;;;84.00;33.90;;;;;;;-4.56;85.06;101265.06;102148;1313;96650;-64
2022/12/17 14:49:03;;;;;;;91.20;34.40;;;;;;;-4.72;84.64;101272.86;102093;1310;93961;-64
2022/12/17 14:51:39;;;;;;;101.90;36.20;;;;;;;-4.75;84.72;101275.98;102105;1312;81308;-62
2022/12/17 14:54:32;;;;;;;88.60;34.50;;;;;;;-4.82;84.77;101272.98;102143;1311;83269;-64
2022/12/17 14:57:21;;;;;;;96.10;36.40;;;;;;;-4.82;85.01;101277.37;102117;1313;98841;-64
2022/12/17 14:59:55;;;;;;;57.40;26.30;;;;;;;-4.84;84.90;101278.48;102098;1313;87620;-61
2022/12/17 15:02:36;;;;;;;52.50;23.50;;;;;;;-4.86;85.03;101281.22;102172;1309;95320;-61
2022/12/17 15:05:17;;;;;;;51.50;22.90;;;;;;;-4.85;85.20;101279.95;102185;1310;81447;-61
2022/12/17 15:07:55;;;;;;;54.30;23.20;;;;;;;-4.84;85.38;101282.38;102119;1313;81757;-60
2022/12/17 15:10:33;;;;;;;50.70;22.70;;;;;;;-4.84;85.13;101283.42;102169;1309;98187;-63
2022/12/17 15:13:11;;;;;;;50.70;23.30;;;;;;;-4.85;85.17;101286.80;102216;1313;88629;-66
2022/12/17 15:15:46;;;;;;;55.40;24.60;;;;;;;-4.85;85.16;101290.84;102234;1309;93799;-66
2022/12/17 15:18:23;;;;;;;55.20;24.00;;;;;;;-4.81;85.20;101296.98;102185;1313;79181;-63
2022/12/17 15:21:02;;;;;;;60.40;26.50;;;;;;;-4.81;85.49;101296.24;101786;1313;522342;-64
2022/12/17 15:23:43;;;;;;;56.60;24.50;;;;;;;-4.77;85.28;101297.14;102113;1310;99621;-62
2022/12/17 15:26:18;;;;;;;56.10;25.80;;;;;;;-4.76;85.25;101299.41;102115;1313;88990;-61
2022/12/17 15:28:55;;;;;;;57.10;25.60;;;;;;;-4.76;85.21;101302.36;102148;1309;94617;-63
2022/12/17 15:31:35;;;;;;;61.70;26.10;;;;;;;-4.76;85.13;101308.34;102093;1313;80372;-61
2022/12/17 15:34:11;;;;;;;56.20;26.10;;;;;;;-4.72;85.16;101310.82;102180;1314;81555;-63
2022/12/17 15:36:45;;;;;;;51.50;25.10;;;;;;;-4.73;85.12;101314.55;102145;1313;97866;-63
2022/12/17 15:39:18;;;;;;;;;;;;;;;-4.78;85.42;101315.11;102162;1309;88441;-61
2022/12/17 15:44:45;;;;;;;53.60;24.10;;;;;;;-4.86;85.36;101319.33;102083;1313;78195;-62
2022/12/17 15:47:22;;;;;;;53.50;24.50;;;;;;;-4.89;85.33;101324.92;102128;1313;82876;-59
2022/12/17 15:49:56;;;;;;;52.20;22.60;;;;;;;-4.94;85.17;101333.94;102112;1310;100156;-64
2022/12/17 15:52:30;;;;;;;61.30;26.60;;;;;;;-4.98;85.45;101340.79;102116;1309;87240;-64
2022/12/17 15:55:09;;;;;;;58.10;26.30;;;;;;;-5.00;85.17;101338.79;102071;1310;94864;-62
2022/12/17 15:57:44;;;;;;;52.70;25.80;;;;;;;-4.98;85.25;101340.27;102153;1310;79648;-62
2022/12/17 16:00:17;;;;;;;;;;;;;;;-4.95;85.42;101344.17;102208;1310;81414;-64
2022/12/17 16:02:58;;;;;;;50.80;24.20;;;;;;;-4.93;85.24;101343.23;102155;1313;98919;-62
2022/12/17 16:05:36;;;;;;;53.30;25.20;;;;;;;-4.97;85.40;101353.56;102112;1310;87511;-62
2022/12/17 16:08:15;;;;;;;50.70;24.80;;;;;;;-4.98;85.23;101353.12;102087;1313;95112;-62
2022/12/17 16:10:51;;;;;;;53.10;23.70;;;;;;;-4.97;85.37;101350.56;102099;1309;80112;-62
2022/12/17 16:13:28;;;;;;;51.50;24.60;;;;;;;-4.94;85.25;101347.82;102178;1309;80575;-62
2022/12/17 16:16:07;;;;;;;54.00;23.30;;;;;;;-4.96;85.34;101346.31;102147;1311;100561;-63
2022/12/17 16:18:42;;;;;;;62.70;30.00;;;;;;;-4.96;85.45;101348.61;102038;1313;87813;-61
2022/12/17 16:21:17;;;;;;;79.80;35.80;;;;;;;-4.99;85.42;101356.14;102108;1312;94491;-61
2022/12/17 16:23:52;;;;;;;93.50;44.80;;;;;;;-5.00;85.44;101361.09;102103;1313;77855;-63
2022/12/17 16:26:28;;;;;;;112.30;52.50;;;;;;;-4.98;85.38;101363.63;102160;1312;83192;-62
2022/12/17 16:29:03;;;;;;;87.70;52.30;;;;;;;-5.01;85.58;101366.77;102140;1313;96996;-63
2022/12/17 16:31:38;;;;;;;61.80;34.20;;;;;;;-5.09;85.38;101368.34;102124;1314;87866;-64
2022/12/17 16:34:14;;;;;;;54.10;29.00;;;;;;;-5.14;85.35;101368.75;102124;1310;93587;-64
2022/12/17 16:36:50;;;;;;;44.10;25.00;;;;;;;-5.20;85.25;101375.85;102105;1313;79223;-63
2022/12/17 16:39:25;;;;;;;53.90;26.30;;;;;;;-5.25;85.36;101376.05;102155;1310;82481;-62
2022/12/17 16:42:04;;;;;;;40.60;23.90;;;;;;;-5.29;85.15;101377.13;102143;1310;97998;-62
2022/12/17 16:44:51;;;;;;;55.30;25.80;;;;;;;-5.28;85.00;101384.80;102081;1313;87196;-62
2022/12/17 16:47:25;;;;;;;65.70;30.00;;;;;;;-5.29;84.94;101390.45;102127;1313;94177;-62
2022/12/17 16:50:01;;;;;;;64.60;28.00;;;;;;;-5.35;84.81;101392.27;102121;1313;80181;-62
2022/12/17 16:52:37;;;;;;;49.60;23.20;;;;;;;-5.39;84.92;101398.41;102157;1310;82316;-62
2022/12/17 16:55:11;;;;;;;;;;;;;;;-5.44;85.17;101398.64;102115;1313;99326;-65
2022/12/17 16:57:50;;;;;;;48.50;24.40;;;;;;;-5.48;85.12;101404.61;101999;1313;90836;-65
2022/12/17 17:00:27;;;;;;;49.40;24.00;;;;;;;-5.47;84.92;101408.21;102105;1310;94132;-66
2022/12/17 17:03:04;;;;;;;75.30;38.00;;;;;;;-5.52;84.89;101409.49;102137;1310;80501;-61
2022/12/17 17:05:40;;;;;;;69.10;37.80;;;;;;;-5.56;85.18;101413.50;102094;1313;82823;-61
2022/12/17 17:08:14;;;;;;;45.40;22.30;;;;;;;-5.50;85.10;101416.23;102095;1313;98999;-57
2022/12/17 17:10:55;;;;;;;45.70;21.70;;;;;;;-5.48;85.10;101419.34;102102;1313;88263;-56
2022/12/17 17:13:31;;;;;;;50.50;23.00;;;;;;;-5.50;85.17;101429.23;102158;1310;94575;-60
2022/12/17 17:16:10;;;;;;;44.40;22.10;;;;;;;-5.50;85.04;101441.67;102108;1310;78657;-59
2022/12/17 17:18:44;;;;;;;40.20;19.70;;;;;;;-5.49;84.94;101439.90;102194;1313;80799;-64
2022/12/17 17:21:28;;;;;;;39.10;18.40;;;;;;;-5.46;85.14;101441.19;102188;1310;97926;-57
2022/12/17 17:24:10;;;;;;;37.90;21.10;;;;;;;-5.47;85.15;101448.08;102177;1313;87111;-57
2022/12/17 17:26:48;;;;;;;34.90;18.70;;;;;;;-5.51;84.88;101448.23;102129;1310;95136;-58
2022/12/17 17:29:23;;;;;;;34.80;19.40;;;;;;;-5.56;85.17;101452.96;102152;1310;80466;-59
2022/12/17 17:31:59;;;;;;;34.20;17.10;;;;;;;-5.61;84.82;101452.33;102190;1310;81720;-59
2022/12/17 17:34:36;;;;;;;30.60;16.30;;;;;;;-5.65;85.00;101447.77;102092;1310;100099;-57
2022/12/17 17:37:12;;;;;;;32.00;16.80;;;;;;;-5.70;84.83;101449.72;102149;1313;86878;-58
2022/12/17 17:39:47;;;;;;;33.30;19.10;;;;;;;-5.76;84.96;101450.64;102071;1310;96706;-58
2022/12/17 17:42:21;;;;;;;34.00;18.20;;;;;;;-5.79;85.03;101456.02;102111;1309;81525;-58
2022/12/17 17:45:02;;;;;;;35.20;18.20;;;;;;;-5.79;84.78;101455.86;102086;1310;82289;-57
2022/12/17 17:47:41;;;;;;;38.60;20.20;;;;;;;-5.80;84.96;101457.11;102111;1313;98373;-58
2022/12/17 17:50:20;;;;;;;42.40;21.40;;;;;;;-5.77;85.01;101457.89;102117;1310;86834;-58
2022/12/17 17:52:57;;;;;;;37.70;19.30;;;;;;;-5.75;85.24;101458.18;102146;1314;94753;-58
2022/12/17 17:55:34;;;;;;;35.70;18.60;;;;;;;-5.71;85.06;101459.22;102152;1313;81626;-60
2022/12/17 17:58:09;;;;;;;34.90;17.80;;;;;;;-5.68;85.17;101461.39;102210;1310;82914;-59
2022/12/17 18:00:48;;;;;;;32.60;17.70;;;;;;;-5.68;85.10;101466.65;102053;1313;100068;-58
2022/12/17 18:03:23;;;;;;;63.60;33.50;;;;;;;-5.72;85.23;101469.96;102155;1310;86589;-60
2022/12/17 18:06:04;;;;;;;104.10;55.60;;;;;;;-5.68;85.23;101471.38;102142;1310;94265;-58
2022/12/17 18:08:43;;;;;;;126.00;80.30;;;;;;;-5.68;85.26;101471.58;102100;1313;80641;-59
2022/12/17 18:11:20;;;;;;;79.20;47.60;;;;;;;-5.66;85.26;101474.29;102126;1311;83460;-59
2022/12/17 18:13:59;;;;;;;57.10;33.30;;;;;;;-5.68;85.34;101474.88;102178;1313;99594;-59
2022/12/17 18:16:38;;;;;;;39.80;22.40;;;;;;;-5.63;85.41;101482.76;102156;1310;86726;-58
2022/12/17 18:19:16;;;;;;;45.50;29.30;;;;;;;-5.61;85.37;101486.02;102165;1313;93105;-58
2022/12/17 18:21:52;;;;;;;39.20;21.50;;;;;;;-5.57;85.43;101486.38;102103;1313;78912;-59
2022/12/17 18:24:27;;;;;;;61.50;36.30;;;;;;;-5.52;85.30;101494.25;102167;1309;81758;-58
2022/12/17 18:27:04;;;;;;;66.30;39.90;;;;;;;-5.57;85.10;101496.71;102172;1313;100241;-57
2022/12/17 18:29:40;;;;;;;48.50;27.60;;;;;;;-5.59;85.19;101502.96;102128;1313;88893;-57
2022/12/17 18:32:19;;;;;;;61.30;39.40;;;;;;;-5.64;85.56;101507.71;102155;1312;94984;-57
2022/12/17 18:34:54;;;;;;;50.60;28.90;;;;;;;-5.66;85.41;101509.70;102165;1313;82128;-59
2022/12/17 18:37:29;;;;;;;60.90;34.90;;;;;;;-5.68;85.35;101506.11;102148;1310;82075;-59
2022/12/17 18:40:05;;;;;;;47.10;27.50;;;;;;;-5.64;85.16;101511.24;102155;1309;98932;-58
2022/12/17 18:45:37;;;;;;;49.60;28.30;;;;;;;-5.60;85.21;101523.69;102129;1310;93933;-61
2022/12/17 18:48:14;;;;;;;48.70;28.70;;;;;;;-5.57;85.47;101524.10;102089;1309;80221;-60
2022/12/17 18:50:48;;;;;;;46.80;26.70;;;;;;;-5.56;85.61;101530.00;102087;1310;80705;-60
2022/12/17 18:53:24;;;;;;;39.80;24.30;;;;;;;-5.55;85.60;101534.17;102159;1310;99604;-60
2022/12/17 18:56:07;;;;;;;40.10;25.20;;;;;;;-5.45;85.82;101537.11;102075;1310;87787;-59
2022/12/17 18:58:44;;;;;;;46.20;25.70;;;;;;;-5.41;85.95;101539.93;102114;1313;95445;-58
2022/12/17 19:01:26;;;;;;;37.50;21.00;;;;;;;-5.39;85.50;101533.90;102125;1310;81470;-56
2022/12/17 19:04:04;;;;;;;35.10;17.60;;;;;;;-5.39;85.99;101531.80;102139;1310;82139;-59
2022/12/17 19:06:43;;;;;;;31.70;16.60;;;;;;;-5.33;85.97;101536.84;102123;1313;99393;-58
2022/12/17 19:09:24;;;;;;;36.00;17.20;;;;;;;-5.30;85.92;101538.66;102105;1313;88546;-56
2022/12/17 19:12:03;;;;;;;38.40;20.00;;;;;;;-5.21;85.54;101543.19;102142;1310;93941;-58
2022/12/17 19:14:38;;;;;;;38.00;19.20;;;;;;;-5.19;85.63;101541.89;102170;1313;77415;-59
2022/12/17 19:17:13;;;;;;;41.40;21.10;;;;;;;-5.20;85.68;101547.87;102126;1310;82832;-57
2022/12/17 19:19:48;;;;;;;44.50;24.00;;;;;;;-5.21;85.71;101556.02;102131;1310;98093;-59
2022/12/17 19:22:23;;;;;;;46.10;23.90;;;;;;;-5.23;85.80;101558.58;102120;1309;89192;-58
2022/12/17 19:24:58;;;;;;;79.30;34.10;;;;;;;-5.26;85.72;101554.45;102103;1310;94992;-56
2022/12/17 19:27:35;;;;;;;185.60;70.90;;;;;;;-5.27;85.73;101558.20;102045;1310;80379;-56
2022/12/17 19:30:12;;;;;;;125.80;54.40;;;;;;;-5.33;85.72;101565.27;102154;1310;82224;-59
2022/12/17 19:32:47;;;;;;;148.20;71.20;;;;;;;-5.36;86.12;101564.49;102173;1309;97892;-59
2022/12/17 19:35:21;;;;;;;126.60;61.20;;;;;;;-5.35;85.74;101561.46;102155;1313;89083;-58
2022/12/17 19:38:03;;;;;;;113.20;58.50;;;;;;;-5.34;85.67;101563.23;102103;1311;95161;-58
2022/12/17 19:40:39;;;;;;;78.40;45.00;;;;;;;-5.33;85.86;101565.98;102139;1312;81736;-57
2022/12/17 19:43:13;;;;;;;98.50;58.50;;;;;;;-5.30;85.85;101567.25;102215;1313;81184;-58
2022/12/17 19:45:46;;;;;;;76.00;42.60;;;;;;;-5.25;85.94;101568.11;102172;1310;98295;-58
2022/12/17 19:48:23;;;;;;;72.80;39.20;;;;;;;-5.19;86.24;101574.00;102145;1310;89303;-57
2022/12/17 19:51:02;;;;;;;84.00;49.30;;;;;;;-5.15;86.26;101583.84;102110;1313;95072;-57
2022/12/17 19:53:39;;;;;;;70.20;36.00;;;;;;;-5.14;86.24;101589.63;102160;1310;80166;-59
2022/12/17 19:56:22;;;;;;;64.80;31.20;;;;;;;-5.07;86.26;101592.65;102143;1313;81934;-57
2022/12/17 19:59:01;;;;;;;57.00;28.90;;;;;;;-5.04;86.12;101586.42;102195;1310;99867;-57
2022/12/17 20:01:40;;;;;;;63.30;29.00;;;;;;;-5.03;86.52;101591.44;102080;1313;87805;-57
2022/12/17 20:04:16;;;;;;;70.10;33.50;;;;;;;-4.99;86.07;101594.27;102144;1310;94183;-56
2022/12/17 20:06:50;;;;;;;71.50;35.90;;;;;;;-4.98;86.52;101599.69;102115;1310;81045;-56
2022/12/17 20:09:28;;;;;;;67.00;31.40;;;;;;;-4.96;86.35;101597.31;102169;1310;81990;-58
2022/12/17 20:12:04;;;;;;;87.60;40.30;;;;;;;-4.95;86.33;101595.34;102162;1310;98511;-57
2022/12/17 20:14:41;;;;;;;74.40;40.00;;;;;;;-4.94;86.36;101602.49;102145;1313;87147;-59
2022/12/17 20:17:19;;;;;;;70.70;38.10;;;;;;;-4.95;86.64;101602.02;102154;1313;94332;-56
2022/12/17 20:19:57;;;;;;;68.20;34.80;;;;;;;-4.96;86.41;101605.04;102116;1310;80812;-57
2022/12/17 20:22:35;;;;;;;59.00;31.40;;;;;;;-4.94;86.41;101610.58;102094;1313;83556;-56
2022/12/17 20:25:11;;;;;;;63.50;30.90;;;;;;;-4.96;86.22;101609.95;102146;1310;97396;-56
2022/12/17 20:27:46;;;;;;;70.60;34.10;;;;;;;-4.96;86.56;101617.34;102184;1314;88117;-57
2022/12/17 20:30:25;;;;;;;64.30;31.70;;;;;;;-4.99;86.26;101615.71;102134;1314;93306;-57
2022/12/17 20:33:03;;;;;;;56.90;28.50;;;;;;;-4.98;86.63;101623.04;102119;1311;82252;-56
2022/12/17 20:35:42;;;;;;;56.90;29.60;;;;;;;-4.97;86.39;101625.97;102177;1310;82227;-56
2022/12/17 20:38:18;;;;;;;65.70;30.50;;;;;;;-5.00;86.51;101629.64;102146;1313;98340;-56
2022/12/17 20:41:01;;;;;;;55.40;29.30;;;;;;;-4.95;86.46;101632.23;102136;1310;87714;-56
2022/12/17 20:43:39;;;;;;;53.80;27.30;;;;;;;-4.92;86.74;101636.84;102178;1313;95127;-56
2022/12/17 20:46:14;;;;;;;51.80;28.80;;;;;;;-4.87;87.07;101634.70;102135;1313;79923;-57
2022/12/17 20:48:50;;;;;;;48.00;27.50;;;;;;;-4.87;86.77;101637.70;102080;1313;81899;-57
2022/12/17 20:51:27;;;;;;;46.80;26.00;;;;;;;-4.84;86.86;101645.30;102103;1313;99510;-57
2022/12/17 20:54:04;;;;;;;43.50;25.10;;;;;;;-4.86;86.87;101645.73;102158;1310;87707;-56
2022/12/17 20:56:41;;;;;;;48.30;28.20;;;;;;;-4.86;86.73;101654.68;102127;1310;95174;-56
2022/12/17 20:59:19;;;;;;;38.80;23.30;;;;;;;-4.87;86.49;101656.81;102177;1309;80456;-57
2022/12/17 21:01:53;;;;;;;42.70;25.20;;;;;;;-4.89;86.90;101664.29;102164;1312;82054;-58
2022/12/17 21:04:28;;;;;;;45.40;27.70;;;;;;;-4.85;86.51;101677.13;102101;1310;99446;-58
2022/12/17 21:07:03;;;;;;;93.10;46.00;;;;;;;-4.82;86.66;101683.53;102121;1313;87924;-58
2022/12/17 21:09:42;;;;;;;74.20;37.40;;;;;;;-4.84;86.69;101684.48;102130;1310;94001;-60
2022/12/17 21:12:19;;;;;;;49.60;29.20;;;;;;;-4.81;86.32;101686.64;102133;1311;80182;-59
2022/12/17 21:14:59;;;;;;;36.70;20.60;;;;;;;-4.86;86.65;101686.64;102161;1310;80496;-57
2022/12/17 21:17:35;;;;;;;35.00;21.00;;;;;;;-4.87;86.65;101683.53;102157;1313;99936;-59
2022/12/17 21:20:12;;;;;;;32.60;20.20;;;;;;;-4.92;86.65;101680.38;102146;1313;87315;-61
2022/12/17 21:22:47;;;;;;;32.00;17.90;;;;;;;-4.98;86.41;101683.46;102120;1310;94990;-59
2022/12/17 21:25:24;;;;;;;34.30;18.90;;;;;;;-5.07;86.70;101688.05;102121;1310;80388;-58
2022/12/17 21:28:01;;;;;;;32.70;19.30;;;;;;;-5.11;86.46;101688.36;102134;1313;81718;-58
2022/12/17 21:30:39;;;;;;;34.20;19.00;;;;;;;-5.12;86.43;101695.42;102137;1313;97271;-59
2022/12/17 21:33:15;;;;;;;33.40;18.80;;;;;;;-5.05;86.58;101697.08;102131;1313;88366;-58
2022/12/17 21:35:57;;;;;;;32.20;19.10;;;;;;;-5.06;86.54;101703.61;102106;1310;94297;-58
2022/12/17 21:38:48;;;;;;;30.00;18.10;;;;;;;-5.04;86.55;101704.25;102062;1310;81942;-58
2022/12/17 21:41:26;;;;;;;31.10;17.70;;;;;;;-5.02;86.46;101706.98;102187;1309;82689;-57
2022/12/17 21:44:05;;;;;;;28.70;17.80;;;;;;;-5.03;86.53;101709.81;102186;1310;99266;-57
2022/12/17 21:46:39;;;;;;;30.80;17.10;;;;;;;-5.00;86.36;101712.71;102157;1310;87892;-57
2022/12/17 21:49:16;;;;;;;30.00;17.90;;;;;;;-4.99;86.36;101709.31;102150;1310;93838;-57
2022/12/17 21:51:51;;;;;;;31.80;18.40;;;;;;;-5.01;86.69;101709.39;102110;1310;79641;-59
2022/12/17 21:54:29;;;;;;;29.30;16.90;;;;;;;-4.93;86.50;101709.95;102156;1313;82985;-58
2022/12/17 21:57:05;;;;;;;30.80;17.30;;;;;;;-4.90;86.91;101712.45;102103;1313;97397;-58
2022/12/17 21:59:40;;;;;;;30.40;17.90;;;;;;;-4.88;86.80;101716.77;102161;1313;88737;-57
2022/12/17 22:02:17;;;;;;;31.00;18.90;;;;;;;-4.87;86.87;101720.09;102109;1310;94112;-56
2022/12/17 22:04:52;;;;;;;34.20;18.30;;;;;;;-4.84;86.83;101719.79;102195;1310;80280;-56
2022/12/17 22:07:28;;;;;;;32.80;18.70;;;;;;;-4.79;86.70;101720.83;102176;1311;82437;-55
2022/12/17 22:10:07;;;;;;;32.90;20.50;;;;;;;-4.76;86.53;101718.78;102187;1313;97774;-58
2022/12/17 22:15:40;;;;;;;33.20;17.80;;;;;;;-4.80;86.60;101721.02;102153;1310;94577;-56
2022/12/17 22:18:18;;;;;;;72.70;39.90;;;;;;;-4.83;86.63;101725.20;102124;1311;78624;-57
2022/12/17 22:21:03;;;;;;;139.20;83.70;;;;;;;-4.86;86.78;101731.12;102120;1310;82977;-58
2022/12/17 22:23:40;;;;;;;83.70;51.60;;;;;;;-4.92;86.67;101738.73;102194;1310;99266;-57
2022/12/17 22:26:17;;;;;;;64.10;37.00;;;;;;;-4.89;86.52;101735.80;102131;1310;88546;-57
2022/12/17 22:28:51;;;;;;;106.90;53.20;;;;;;;-4.89;86.28;101741.94;102105;1310;94891;-58
2022/12/17 22:34:23;;;;;;;88.00;45.20;;;;;;;-4.88;86.51;101751.23;102154;1309;80474;-57
2022/12/17 22:36:58;;;;;;;65.10;34.90;;;;;;;-4.88;86.46;101759.62;102153;1310;98747;-57
2022/12/17 22:39:39;;;;;;;76.50;40.60;;;;;;;-4.84;86.74;101762.83;102159;1313;87891;-58
2022/12/17 22:45:09;;;;;;;59.10;34.70;;;;;;;-4.74;86.75;101766.13;102161;1312;80658;-59
2022/12/17 22:47:43;;;;;;;64.00;36.90;;;;;;;-4.73;86.84;101773.48;102097;1313;82778;-59
2022/12/17 22:50:20;;;;;;;52.90;31.90;;;;;;;-4.70;86.80;101776.21;102115;1310;100822;-58
2022/12/17 22:52:55;;;;;;;47.60;27.90;;;;;;;-4.68;87.09;101778.23;102154;1310;87246;-58
2022/12/17 22:55:30;;;;;;;66.90;39.30;;;;;;;-4.68;86.88;101777.66;102125;1313;93954;-57
2022/12/17 22:58:05;;;;;;;49.00;29.20;;;;;;;-4.66;87.01;101784.96;102159;1313;81276;-57
2022/12/17 23:00:39;;;;;;;54.70;27.10;;;;;;;-4.67;86.98;101793.96;102116;1313;82580;-57
2022/12/17 23:03:16;;;;;;;63.60;29.20;;;;;;;-4.58;86.82;101799.46;102127;1309;98396;-57
2022/12/17 23:05:53;;;;;;;75.50;31.70;;;;;;;-4.54;86.68;101801.38;102154;1310;88625;-58
2022/12/17 23:08:30;;;;;;;54.90;27.30;;;;;;;-4.50;86.76;101798.24;102096;1313;94838;-57
2022/12/17 23:11:10;;;;;;;54.70;25.30;;;;;;;-4.56;86.43;101798.81;102069;1311;78734;-58
2022/12/17 23:13:46;;;;;;;77.80;33.60;;;;;;;-4.61;86.62;101798.15;102125;1313;81998;-59
2022/12/17 23:16:21;;;;;;;108.10;42.70;;;;;;;-4.64;86.56;101798.63;102163;1313;99407;-60
2022/12/17 23:18:55;;;;;;;123.10;56.00;;;;;;;-4.65;86.48;101796.00;102124;1310;87427;-59
2022/12/17 23:21:30;;;;;;;93.40;55.50;;;;;;;-4.73;86.27;101795.09;101092;1310;1429951;-59
2022/12/17 23:24:05;;;;;;;87.50;47.30;;;;;;;-4.78;86.45;101791.60;102156;1310;79459;-58
2022/12/17 23:26:40;;;;;;;73.40;39.70;;;;;;;-4.81;86.50;101795.58;102102;1313;82911;-57
2022/12/17 23:29:22;;;;;;;114.90;43.20;;;;;;;-4.81;86.55;101792.07;102147;1313;97853;-59
2022/12/17 23:32:01;;;;;;;93.40;36.60;;;;;;;-4.83;86.56;101787.02;102141;1314;86700;-57
2022/12/17 23:34:37;;;;;;;80.10;34.10;;;;;;;-4.82;86.72;101792.80;102075;1313;93802;-57
2022/12/17 23:37:14;;;;;;;58.00;27.50;;;;;;;-4.74;86.41;101791.81;102100;1313;81854;-56
2022/12/17 23:39:49;;;;;;;51.10;26.60;;;;;;;-4.71;86.58;101800.28;102119;1310;81240;-59
2022/12/17 23:42:23;;;;;;;50.50;24.50;;;;;;;-4.69;86.69;101804.23;102157;1310;99615;-61
2022/12/17 23:45:00;;;;;;;52.40;25.20;;;;;;;-4.65;86.95;101804.61;102130;1313;86501;-60
2022/12/17 23:47:38;;;;;;;68.00;33.00;;;;;;;-4.64;86.76;101803.89;102114;1313;95108;-56
2022/12/17 23:50:13;;;;;;;69.70;31.50;;;;;;;-4.61;86.73;101815.01;102125;1312;78618;-58
2022/12/17 23:52:47;;;;;;;76.70;33.00;;;;;;;-4.60;86.77;101819.54;102164;1309;82109;-57
2022/12/17 23:55:22;;;;;;;99.80;41.30;;;;;;;-4.60;86.74;101827.98;102107;1313;98373;-58
2022/12/17 23:57:59;;;;;;;86.20;39.40;;;;;;;-4.56;86.65;101832.58;102104;1314;87587;-58
